createdAt,value
2022-07-30T00:04:51.461Z,0.77
2022-07-30T00:09:55.056Z,0.63
2022-07-30T00:15:01.415Z,0.80
2022-07-30T00:20:07.601Z,0.60
2022-07-30T00:25:11.286Z,0.60
2022-07-30T00:30:15.608Z,0.70
2022-07-30T00:35:21.539Z,0.60
2022-07-30T00:40:25.161Z,0.60
2022-07-30T00:45:28.890Z,0.60
2022-07-30T00:50:34.087Z,0.50
2022-07-30T00:55:38.188Z,1.47
2022-07-30T01:00:42.016Z,0.57
2022-07-30T01:05:47.109Z,1.10
2022-07-30T01:10:50.957Z,1.43
2022-07-30T01:15:54.735Z,0.63
2022-07-30T01:21:06.515Z,1.27
2022-07-30T01:26:13.960Z,0.60
2022-07-30T01:31:19.963Z,0.97
2022-07-30T01:36:25.322Z,0.67
2022-07-30T01:41:31.805Z,1.47
2022-07-30T01:46:36.136Z,0.70
2022-07-30T01:51:40.702Z,0.70
2022-07-30T01:56:48.878Z,1.10
2022-07-30T02:01:52.565Z,0.70
2022-07-30T02:07:04.037Z,0.63
2022-07-30T02:12:30.540Z,0.63
2022-07-30T02:17:44.960Z,0.60
2022-07-30T02:22:50.429Z,0.60
2022-07-30T02:28:06.905Z,0.93
2022-07-30T02:33:13.440Z,0.90
2022-07-30T02:38:18.684Z,0.80
2022-07-30T02:43:25.929Z,1.20
2022-07-30T02:48:35.225Z,0.77
2022-07-30T02:53:41.246Z,1.20
2022-07-30T02:58:46.937Z,0.67
2022-07-30T03:03:52.329Z,0.80
2022-07-30T03:08:58.340Z,0.63
2022-07-30T03:14:03.804Z,0.83
2022-07-30T03:19:09.913Z,0.93
2022-07-30T03:24:17.726Z,0.60
2022-07-30T03:29:25.890Z,0.80
2022-07-30T03:34:30.310Z,1.20
2022-07-30T03:39:35.630Z,0.97
2022-07-30T03:44:42.360Z,0.63
2022-07-30T03:49:46.329Z,1.63
2022-07-30T03:54:50.247Z,1.03
2022-07-30T04:00:18.371Z,1.23
2022-07-30T04:05:26.912Z,1.03
2022-07-30T04:10:41.901Z,1.00
2022-07-30T04:16:41.523Z,0.63
2022-07-30T04:21:47.541Z,0.70
2022-07-30T04:26:52.798Z,1.40
2022-07-30T04:31:59.202Z,0.77
2022-07-30T04:37:29.281Z,0.67
2022-07-30T04:42:33.116Z,0.93
2022-07-30T04:47:44.473Z,1.00
2022-07-30T04:53:05.270Z,1.77
2022-07-30T04:58:14.590Z,0.87
2022-07-30T05:03:21.546Z,0.93
2022-07-30T05:08:28.438Z,2.07
2022-07-30T05:13:38.343Z,0.90
2022-07-30T05:18:46.587Z,0.70
2022-07-30T05:23:51.591Z,1.03
2022-07-30T05:29:08.262Z,0.80
2022-07-30T05:34:23.644Z,1.40
2022-07-30T05:39:31.189Z,1.50
2022-07-30T05:44:38.852Z,1.07
2022-07-30T05:49:44.117Z,1.17
2022-07-30T05:54:51.041Z,1.20
2022-07-30T06:00:26.701Z,1.00
2022-07-30T06:05:33.526Z,1.00
2022-07-30T06:10:38.619Z,1.20
2022-07-30T06:15:43.145Z,1.20
2022-07-30T06:20:49.543Z,1.67
2022-07-30T06:26:07.467Z,1.37
2022-07-30T06:31:11.772Z,1.37
2022-07-30T06:36:16.775Z,1.37
2022-07-30T06:41:37.535Z,1.30
2022-07-30T06:46:41.150Z,1.73
2022-07-30T06:51:48.792Z,1.30
2022-07-30T06:56:52.738Z,1.90
2022-07-30T07:01:57.228Z,1.40
2022-07-30T07:07:12.605Z,1.27
2022-07-30T07:12:18.433Z,1.97
2022-07-30T07:17:22.861Z,1.70
2022-07-30T07:22:43.186Z,1.67
2022-07-30T07:28:10.852Z,1.47
2022-07-30T07:33:13.257Z,1.37
2022-07-30T07:38:21.761Z,2.40
2022-07-30T07:43:27.158Z,2.57
2022-07-30T07:48:34.771Z,2.43
2022-07-30T07:54:18.566Z,3.00
2022-07-30T07:59:19.850Z,3.47
2022-07-30T08:04:23.670Z,3.60
2022-07-30T08:09:47.393Z,3.13
2022-07-30T08:15:03.696Z,3.30
2022-07-30T08:20:15.644Z,2.93
2022-07-30T08:25:22.164Z,3.50
2022-07-30T08:30:28.089Z,3.63
2022-07-30T08:35:33.272Z,3.40
2022-07-30T08:40:39.626Z,2.63
2022-07-30T08:45:44.858Z,2.53
2022-07-30T08:51:06.287Z,2.60
2022-07-30T08:56:11.218Z,2.87
2022-07-30T09:01:15.102Z,2.37
2022-07-30T09:06:19.271Z,2.43
2022-07-30T09:11:24.528Z,2.80
2022-07-30T09:16:28.210Z,2.50
2022-07-30T09:21:35.146Z,2.07
2022-07-30T09:27:03.410Z,1.47
2022-07-30T09:32:25.422Z,1.83
2022-07-30T09:38:06.462Z,2.17
2022-07-30T09:43:30.164Z,1.27
2022-07-30T09:48:47.730Z,1.83
2022-07-30T09:53:56.092Z,1.10
2022-07-30T09:59:03.189Z,1.30
2022-07-30T10:04:08.209Z,2.13
2022-07-30T10:09:45.163Z,1.83
2022-07-30T10:14:54.758Z,3.00
2022-07-30T10:19:59.159Z,1.27
2022-07-30T10:25:27.907Z,1.60
2022-07-30T10:30:53.105Z,1.33
2022-07-30T10:35:57.261Z,1.80
2022-07-30T10:41:14.664Z,2.17
2022-07-30T10:46:30.291Z,2.00
2022-07-30T10:51:46.578Z,1.50
2022-07-30T10:57:05.247Z,1.67
2022-07-30T11:02:11.612Z,1.87
2022-07-30T11:07:29.606Z,1.30
2022-07-30T11:12:53.483Z,3.33
2022-07-30T11:18:13.033Z,1.63
2022-07-30T11:23:40.365Z,1.33
2022-07-30T11:28:46.178Z,1.17
2022-07-30T11:33:54.809Z,2.20
2022-07-30T11:39:05.445Z,1.30
2022-07-30T11:44:30.535Z,1.20
2022-07-30T11:49:37.863Z,1.73
2022-07-30T11:54:53.315Z,1.30
2022-07-30T11:59:58.026Z,0.93
2022-07-30T12:05:04.506Z,1.20
2022-07-30T12:10:26.919Z,0.90
2022-07-30T12:15:33.335Z,1.00
2022-07-30T12:20:38.930Z,0.80
2022-07-30T12:25:47.851Z,1.17
2022-07-30T12:30:56.277Z,1.37
2022-07-30T12:36:02.195Z,2.60
2022-07-30T12:41:06.645Z,0.93
2022-07-30T12:46:14.617Z,1.10
2022-07-30T12:51:20.441Z,1.67
2022-07-30T12:56:27.328Z,1.20
2022-07-30T13:01:41.773Z,1.53
2022-07-30T13:07:04.633Z,0.70
2022-07-30T13:12:12.530Z,0.93
2022-07-30T13:17:16.139Z,0.93
2022-07-30T13:22:21.648Z,1.20
2022-07-30T13:27:25.420Z,0.50
2022-07-30T13:32:29.148Z,0.60
2022-07-30T13:37:38.476Z,1.00
2022-07-30T13:42:42.339Z,0.47
2022-07-30T13:47:45.942Z,0.60
2022-07-30T13:52:51.294Z,0.50
2022-07-30T13:57:55.010Z,0.50
2022-07-30T14:02:58.615Z,0.40
2022-07-30T14:08:05.102Z,0.60
2022-07-30T14:13:10.266Z,0.40
2022-07-30T14:18:17.970Z,0.57
2022-07-30T14:23:22.983Z,1.33
2022-07-30T14:28:26.988Z,0.63
2022-07-30T14:33:30.563Z,0.60
2022-07-30T14:38:35.625Z,1.10
2022-07-30T14:43:39.180Z,0.50
2022-07-30T14:48:42.882Z,0.57
2022-07-30T14:53:48.005Z,0.40
2022-07-30T14:58:52.208Z,0.60
2022-07-30T15:03:56.193Z,0.87
2022-07-30T15:09:01.175Z,0.50
2022-07-30T15:14:05.035Z,0.30
2022-07-30T15:19:08.884Z,0.73
2022-07-30T15:24:14.075Z,0.40
2022-07-30T15:29:17.692Z,0.30
2022-07-30T15:34:21.332Z,0.50
2022-07-30T15:39:28.251Z,0.47
2022-07-30T15:44:32.374Z,0.30
2022-07-30T15:49:36.091Z,0.63
2022-07-30T15:54:41.741Z,0.30
2022-07-30T15:59:45.358Z,0.40
2022-07-30T16:04:49.741Z,0.30
2022-07-30T16:09:58.031Z,0.87
2022-07-30T16:15:01.714Z,0.80
2022-07-30T16:20:06.880Z,0.30
2022-07-30T16:25:12.230Z,0.57
2022-07-30T16:30:15.890Z,0.70
2022-07-30T16:35:19.548Z,0.40
2022-07-30T16:40:24.658Z,0.30
2022-07-30T16:45:28.796Z,0.50
2022-07-30T16:50:32.504Z,0.33
2022-07-30T16:55:37.512Z,0.27
2022-07-30T17:00:41.945Z,0.47
2022-07-30T17:05:45.630Z,0.50
2022-07-30T17:10:50.889Z,0.43
2022-07-30T17:15:54.567Z,0.43
2022-07-30T17:20:58.202Z,2.00
2022-07-30T17:26:03.260Z,0.80
2022-07-30T17:31:07.409Z,0.70
2022-07-30T17:36:12.746Z,0.30
2022-07-30T17:41:17.785Z,0.60
2022-07-30T17:46:21.416Z,0.30
2022-07-30T17:51:24.988Z,0.30
2022-07-30T17:56:30.323Z,0.33
2022-07-30T18:01:34.080Z,0.63
2022-07-30T18:06:37.731Z,0.40
2022-07-30T18:11:42.975Z,1.13
2022-07-30T18:16:46.783Z,0.50
2022-07-30T18:21:51.098Z,0.30
2022-07-30T18:26:56.605Z,0.30
2022-07-30T18:32:00.544Z,0.50
2022-07-30T18:37:04.418Z,0.23
2022-07-30T18:42:09.616Z,0.30
2022-07-30T18:47:13.244Z,0.30
2022-07-30T18:52:17.611Z,0.67
2022-07-30T18:57:22.580Z,0.37
2022-07-30T19:02:26.204Z,0.30
2022-07-30T19:07:29.885Z,0.30
2022-07-30T19:12:55.536Z,0.30
2022-07-30T19:17:59.635Z,0.73
2022-07-30T19:23:03.932Z,0.40
2022-07-30T19:28:10.854Z,0.57
2022-07-30T19:33:15.882Z,0.20
2022-07-30T19:38:21.714Z,0.97
2022-07-30T19:43:27.483Z,0.60
2022-07-30T19:48:34.567Z,0.33
2022-07-30T19:53:38.296Z,0.47
2022-07-30T19:58:43.572Z,0.40
2022-07-30T20:03:48.434Z,0.77
2022-07-30T20:08:52.605Z,0.50
2022-07-30T20:13:57.801Z,0.83
2022-07-30T20:19:04.549Z,0.30
2022-07-30T20:24:08.511Z,0.50
2022-07-30T20:29:18.844Z,0.60
2022-07-30T20:34:25.981Z,0.40
2022-07-30T20:39:31.566Z,0.77
2022-07-30T20:44:38.035Z,0.50
2022-07-30T20:49:41.818Z,0.60
2022-07-30T20:54:45.485Z,0.60
2022-07-30T20:59:50.432Z,0.60
2022-07-30T21:04:59.906Z,0.60
2022-07-30T21:10:03.816Z,0.97
2022-07-30T21:15:23.120Z,0.50
2022-07-30T21:20:28.335Z,0.40
2022-07-30T21:25:32.591Z,0.60
2022-07-30T21:30:38.183Z,0.50
2022-07-30T21:35:42.930Z,0.80
2022-07-30T21:40:46.529Z,1.07
2022-07-30T21:45:54.990Z,0.50
2022-07-30T21:50:59.695Z,0.50
2022-07-30T21:56:03.410Z,1.33
2022-07-30T22:01:17.528Z,1.43
2022-07-30T22:06:21.990Z,2.90
2022-07-30T22:11:27.746Z,1.97
2022-07-30T22:16:47.863Z,3.50
2022-07-30T22:21:51.861Z,8.30
2022-07-30T22:26:55.420Z,7.40
2022-07-30T22:32:03.848Z,5.60
2022-07-30T22:37:12.474Z,2.83
2022-07-30T22:42:16.975Z,1.47
2022-07-30T22:47:54.160Z,1.43
2022-07-30T22:52:54.170Z,0.73
2022-07-30T22:58:03.221Z,0.93
2022-07-30T23:03:08.554Z,0.77
2022-07-30T23:08:12.499Z,0.80
2022-07-30T23:13:17.367Z,0.50
2022-07-30T23:18:22.370Z,0.50
2022-07-30T23:23:25.984Z,0.30
2022-07-30T23:28:34.503Z,0.50
2022-07-30T23:33:40.365Z,0.50
2022-07-30T23:38:44.061Z,0.60
2022-07-30T23:43:49.914Z,0.40
2022-07-30T23:48:54.907Z,0.60
2022-07-30T23:53:59.272Z,0.83
2022-07-30T23:59:02.846Z,0.50
